Terminal Aerodrome Forecast
Issued by NWS

Home | Current Version | Previous Version | Graphics & Text | Print | Product List | Glossary On
Versions: 1 2 3 4 5 6 7 8 9 10 11 12 13 14 15 16 17 18
000
FTUS42 KMHX 201600 AAA
TAFPGV
TAF AMD
KPGV 201645Z 2017/2112 04003KT P6SM -RA BKN006 BKN010
     FM201800 05004KT P6SM SCT010 BKN025
     FM202200 02002KT P6SM SCT025 BKN080
      AMD LTD TO CLD VIS AND WIND=

USA.gov is the U.S. government's official web portal to all federal, state and local government web resources and services.